Terminal Aerodrome Forecast
Issued by NWS

Home | Current Version | Previous Version | Text Only | Print | Product List | Glossary On
Versions: 1 2 3 4 5 6 7 8 9 10 11 12 13 14 15 16 17 18 19 20 21 22 23 24 25 26 27 28 29 30 31 32
304
FTUS42 KJAX 171452 AAB
TAFVQQ
TAF AMD
KVQQ 171452Z 1715/1812 00000KT 5SM HZ SCT003 SCT015
     FM171600 VRB03KT P6SM FEW025
     FM172100 15005KT P6SM SCT040 BKN250
     FM180100 18003KT P6SM SCT050 BKN250
     FM180400 00000KT 3SM BR SCT002=

USA.gov is the U.S. government's official web portal to all federal, state and local government web resources and services.